9WI6 weather

Kitty Hawk Estates Airport
Polar, Wisconsin, United States

Public forecast

Using degrees Fahrenheit for public forecast. Weather courtesy of forecast.io.

Closest aviation weather report (METAR) to Kitty Hawk Estates Airport

Closest report is Langlade County Airport, 5.0 nm (9.2 km) NW. Retrieved 2020/04/09 10:15 UTC (6 minutes ago):

KAIG 091015Z AUTO 30017G23KT 10SM CLR M01/M06 A2965 RMK AO2 T10131065

Closest aviation forecast (TAF) to Kitty Hawk Estates Airport

Closest forecast is Wausau Downtown Airport, 28.0 nm (51.9 km) WSW. Retrieved 2020/04/09 06:22 UTC (4 hours ago):

TAF KAUW 090520Z 0906/1006 30009G15KT P6SM SCT100 FM091000 29012G18KT P6SM SCT060 FM091200 29013G19KT P6SM SCT050 FM091400 31017G26KT P6SM -SHRASN SCT035 BKN050 FM100000 32011G18KT P6SM SCT060